sensor_id;sensor_type;location;lat;lon;timestamp;temperature;humidity
40828;DHT22;26549;50.918;5.338;2023-04-29T00:00:43;14.30;99.90
40828;DHT22;26549;50.918;5.338;2023-04-29T00:03:09;14.10;99.90
40828;DHT22;26549;50.918;5.338;2023-04-29T00:05:35;14.10;99.90
40828;DHT22;26549;50.918;5.338;2023-04-29T00:08:01;14.20;99.90
40828;DHT22;26549;50.918;5.338;2023-04-29T00:10:30;14.00;99.90
40828;DHT22;26549;50.918;5.338;2023-04-29T00:12:56;14.00;99.90
40828;DHT22;26549;50.918;5.338;2023-04-29T00:15:22;14.00;99.90
40828;DHT22;26549;50.918;5.338;2023-04-29T00:17:50;13.80;99.90
40828;DHT22;26549;50.918;5.338;2023-04-29T00:20:19;13.50;99.90
40828;DHT22;26549;50.918;5.338;2023-04-29T00:22:45;13.50;99.90
40828;DHT22;26549;50.918;5.338;2023-04-29T00:25:12;13.60;99.90
40828;DHT22;26549;50.918;5.338;2023-04-29T00:27:40;13.50;99.90
40828;DHT22;26549;50.918;5.338;2023-04-29T00:30:07;13.40;99.90
40828;DHT22;26549;50.918;5.338;2023-04-29T00:32:34;13.40;99.90
40828;DHT22;26549;50.918;5.338;2023-04-29T00:35:04;13.40;99.90
40828;DHT22;26549;50.918;5.338;2023-04-29T00:37:32;13.40;99.90
40828;DHT22;26549;50.918;5.338;2023-04-29T00:40:01;13.50;99.90
40828;DHT22;26549;50.918;5.338;2023-04-29T00:42:30;13.60;99.90
40828;DHT22;26549;50.918;5.338;2023-04-29T00:45:01;13.50;99.90
40828;DHT22;26549;50.918;5.338;2023-04-29T00:47:28;13.50;99.90
40828;DHT22;26549;50.918;5.338;2023-04-29T00:49:57;13.30;99.90
40828;DHT22;26549;50.918;5.338;2023-04-29T00:52:23;13.20;99.90
40828;DHT22;26549;50.918;5.338;2023-04-29T00:54:51;13.30;99.90
40828;DHT22;26549;50.918;5.338;2023-04-29T00:57:22;13.40;99.90
40828;DHT22;26549;50.918;5.338;2023-04-29T00:59:48;13.20;99.90
40828;DHT22;26549;50.918;5.338;2023-04-29T01:02:15;13.20;99.90
40828;DHT22;26549;50.918;5.338;2023-04-29T01:04:45;13.20;99.90
40828;DHT22;26549;50.918;5.338;2023-04-29T01:07:29;13.20;99.90
40828;DHT22;26549;50.918;5.338;2023-04-29T01:12:53;13.20;99.90
40828;DHT22;26549;50.918;5.338;2023-04-29T01:18:45;13.30;99.90
40828;DHT22;26549;50.918;5.338;2023-04-29T01:21:15;13.30;99.90
40828;DHT22;26549;50.918;5.338;2023-04-29T01:23:44;13.20;99.90
40828;DHT22;26549;50.918;5.338;2023-04-29T01:26:13;13.40;99.90
40828;DHT22;26549;50.918;5.338;2023-04-29T01:31:31;13.30;99.90
40828;DHT22;26549;50.918;5.338;2023-04-29T01:34:22;13.10;99.90
40828;DHT22;26549;50.918;5.338;2023-04-29T01:37:07;13.20;99.90
40828;DHT22;26549;50.918;5.338;2023-04-29T01:39:44;13.20;99.90
40828;DHT22;26549;50.918;5.338;2023-04-29T01:42:39;13.30;99.90
40828;DHT22;26549;50.918;5.338;2023-04-29T01:45:10;13.10;99.90
40828;DHT22;26549;50.918;5.338;2023-04-29T01:47:46;13.10;99.90
40828;DHT22;26549;50.918;5.338;2023-04-29T01:50:16;13.10;99.90
40828;DHT22;26549;50.918;5.338;2023-04-29T01:52:44;13.10;99.90
40828;DHT22;26549;50.918;5.338;2023-04-29T01:55:12;13.10;99.90
40828;DHT22;26549;50.918;5.338;2023-04-29T01:57:38;13.00;99.90
40828;DHT22;26549;50.918;5.338;2023-04-29T02:00:06;13.10;99.90
40828;DHT22;26549;50.918;5.338;2023-04-29T02:02:37;13.10;99.90
40828;DHT22;26549;50.918;5.338;2023-04-29T02:05:06;13.00;99.90
40828;DHT22;26549;50.918;5.338;2023-04-29T02:07:36;12.90;99.90
40828;DHT22;26549;50.918;5.338;2023-04-29T02:10:08;12.80;99.90
40828;DHT22;26549;50.918;5.338;2023-04-29T02:12:39;12.80;99.90
40828;DHT22;26549;50.918;5.338;2023-04-29T02:15:08;12.80;99.90
40828;DHT22;26549;50.918;5.338;2023-04-29T02:17:34;13.00;99.90
40828;DHT22;26549;50.918;5.338;2023-04-29T02:20:00;13.10;99.90
40828;DHT22;26549;50.918;5.338;2023-04-29T02:22:27;12.90;99.90
40828;DHT22;26549;50.918;5.338;2023-04-29T02:24:53;12.90;99.90
40828;DHT22;26549;50.918;5.338;2023-04-29T02:27:20;12.80;99.90
40828;DHT22;26549;50.918;5.338;2023-04-29T02:29:52;12.90;99.90
40828;DHT22;26549;50.918;5.338;2023-04-29T02:32:19;12.90;99.90
40828;DHT22;26549;50.918;5.338;2023-04-29T02:34:50;12.80;99.90
40828;DHT22;26549;50.918;5.338;2023-04-29T02:37:16;12.70;99.90
40828;DHT22;26549;50.918;5.338;2023-04-29T02:39:49;12.80;99.90
40828;DHT22;26549;50.918;5.338;2023-04-29T02:42:16;12.70;99.90
40828;DHT22;26549;50.918;5.338;2023-04-29T02:44:42;12.70;99.90
40828;DHT22;26549;50.918;5.338;2023-04-29T02:47:09;12.70;99.90
40828;DHT22;26549;50.918;5.338;2023-04-29T02:49:37;12.60;99.90
40828;DHT22;26549;50.918;5.338;2023-04-29T02:52:08;12.80;99.90
40828;DHT22;26549;50.918;5.338;2023-04-29T02:54:37;12.60;99.90
40828;DHT22;26549;50.918;5.338;2023-04-29T02:57:18;12.50;99.90
40828;DHT22;26549;50.918;5.338;2023-04-29T02:59:48;12.50;99.90
40828;DHT22;26549;50.918;5.338;2023-04-29T03:02:22;12.40;99.90
40828;DHT22;26549;50.918;5.338;2023-04-29T03:04:48;12.30;99.90
40828;DHT22;26549;50.918;5.338;2023-04-29T03:07:19;12.00;99.90
40828;DHT22;26549;50.918;5.338;2023-04-29T03:09:45;12.00;99.90
40828;DHT22;26549;50.918;5.338;2023-04-29T03:12:16;12.10;99.90
40828;DHT22;26549;50.918;5.338;2023-04-29T03:14:45;11.90;99.90
40828;DHT22;26549;50.918;5.338;2023-04-29T03:17:14;11.90;99.90
40828;DHT22;26549;50.918;5.338;2023-04-29T03:19:44;11.90;99.90
40828;DHT22;26549;50.918;5.338;2023-04-29T03:22:13;12.20;99.90
40828;DHT22;26549;50.918;5.338;2023-04-29T03:24:40;12.20;99.90
40828;DHT22;26549;50.918;5.338;2023-04-29T03:27:07;12.10;99.90
40828;DHT22;26549;50.918;5.338;2023-04-29T03:29:36;12.10;99.90
40828;DHT22;26549;50.918;5.338;2023-04-29T03:32:07;12.30;99.90
40828;DHT22;26549;50.918;5.338;2023-04-29T03:34:33;12.30;99.90
40828;DHT22;26549;50.918;5.338;2023-04-29T03:37:00;12.30;99.90
40828;DHT22;26549;50.918;5.338;2023-04-29T03:39:26;12.10;99.90
40828;DHT22;26549;50.918;5.338;2023-04-29T03:41:59;12.10;99.90
40828;DHT22;26549;50.918;5.338;2023-04-29T03:44:29;12.10;99.90
40828;DHT22;26549;50.918;5.338;2023-04-29T03:46:56;12.00;99.90
40828;DHT22;26549;50.918;5.338;2023-04-29T03:49:22;12.00;99.90
40828;DHT22;26549;50.918;5.338;2023-04-29T03:51:49;12.00;99.90
40828;DHT22;26549;50.918;5.338;2023-04-29T03:54:21;12.10;99.90
40828;DHT22;26549;50.918;5.338;2023-04-29T03:56:50;12.10;99.90
40828;DHT22;26549;50.918;5.338;2023-04-29T03:59:18;12.10;99.90
40828;DHT22;26549;50.918;5.338;2023-04-29T04:01:45;12.20;99.90
40828;DHT22;26549;50.918;5.338;2023-04-29T04:04:11;12.20;99.90
40828;DHT22;26549;50.918;5.338;2023-04-29T04:06:40;12.20;99.90
40828;DHT22;26549;50.918;5.338;2023-04-29T04:09:07;12.10;99.90
40828;DHT22;26549;50.918;5.338;2023-04-29T04:11:36;11.80;99.90
40828;DHT22;26549;50.918;5.338;2023-04-29T04:14:11;11.70;99.90
40828;DHT22;26549;50.918;5.338;2023-04-29T04:16:40;11.80;99.90
40828;DHT22;26549;50.918;5.338;2023-04-29T04:19:11;11.80;99.90
40828;DHT22;26549;50.918;5.338;2023-04-29T04:21:37;11.80;99.90
40828;DHT22;26549;50.918;5.338;2023-04-29T04:24:03;11.80;99.90
40828;DHT22;26549;50.918;5.338;2023-04-29T04:26:31;12.00;99.90
40828;DHT22;26549;50.918;5.338;2023-04-29T04:29:02;11.90;99.90
40828;DHT22;26549;50.918;5.338;2023-04-29T04:31:29;11.90;99.90
40828;DHT22;26549;50.918;5.338;2023-04-29T04:33:58;11.80;99.90
40828;DHT22;26549;50.918;5.338;2023-04-29T04:36:26;11.80;99.90
40828;DHT22;26549;50.918;5.338;2023-04-29T04:38:53;11.80;99.90
40828;DHT22;26549;50.918;5.338;2023-04-29T04:41:19;11.60;99.90
40828;DHT22;26549;50.918;5.338;2023-04-29T04:43:45;11.70;99.90
40828;DHT22;26549;50.918;5.338;2023-04-29T04:46:15;11.60;99.90
40828;DHT22;26549;50.918;5.338;2023-04-29T04:48:44;11.70;99.90
40828;DHT22;26549;50.918;5.338;2023-04-29T04:51:11;11.70;99.90
40828;DHT22;26549;50.918;5.338;2023-04-29T04:53:39;11.70;99.90
40828;DHT22;26549;50.918;5.338;2023-04-29T04:56:06;11.70;99.90
40828;DHT22;26549;50.918;5.338;2023-04-29T04:58:35;11.70;99.90
40828;DHT22;26549;50.918;5.338;2023-04-29T05:01:01;11.70;99.90
40828;DHT22;26549;50.918;5.338;2023-04-29T05:03:27;11.80;99.90
40828;DHT22;26549;50.918;5.338;2023-04-29T05:05:57;11.90;99.90
40828;DHT22;26549;50.918;5.338;2023-04-29T05:08:26;12.00;99.90
40828;DHT22;26549;50.918;5.338;2023-04-29T05:10:53;12.00;99.90
40828;DHT22;26549;50.918;5.338;2023-04-29T05:13:19;12.20;99.90
40828;DHT22;26549;50.918;5.338;2023-04-29T05:15:46;12.30;99.90
40828;DHT22;26549;50.918;5.338;2023-04-29T05:18:12;12.40;99.90
40828;DHT22;26549;50.918;5.338;2023-04-29T05:20:40;12.30;99.90
40828;DHT22;26549;50.918;5.338;2023-04-29T05:23:09;12.40;99.90
40828;DHT22;26549;50.918;5.338;2023-04-29T05:25:37;12.40;99.90
40828;DHT22;26549;50.918;5.338;2023-04-29T05:28:04;12.40;99.90
40828;DHT22;26549;50.918;5.338;2023-04-29T05:30:30;12.40;99.90
40828;DHT22;26549;50.918;5.338;2023-04-29T05:32:56;12.40;99.90
40828;DHT22;26549;50.918;5.338;2023-04-29T05:35:25;12.40;99.90
40828;DHT22;26549;50.918;5.338;2023-04-29T05:37:52;12.40;99.90
40828;DHT22;26549;50.918;5.338;2023-04-29T05:40:18;12.40;99.90
40828;DHT22;26549;50.918;5.338;2023-04-29T05:42:44;12.30;99.90
40828;DHT22;26549;50.918;5.338;2023-04-29T05:45:20;12.40;99.90
40828;DHT22;26549;50.918;5.338;2023-04-29T05:47:46;12.30;99.90
40828;DHT22;26549;50.918;5.338;2023-04-29T05:50:12;12.20;99.90
40828;DHT22;26549;50.918;5.338;2023-04-29T05:52:40;12.00;99.90
40828;DHT22;26549;50.918;5.338;2023-04-29T05:55:08;12.10;99.90
40828;DHT22;26549;50.918;5.338;2023-04-29T05:57:36;11.70;99.90
40828;DHT22;26549;50.918;5.338;2023-04-29T06:00:03;11.50;99.90
40828;DHT22;26549;50.918;5.338;2023-04-29T06:02:32;11.30;99.90
40828;DHT22;26549;50.918;5.338;2023-04-29T06:05:00;11.20;99.90
40828;DHT22;26549;50.918;5.338;2023-04-29T06:07:26;11.30;99.90
40828;DHT22;26549;50.918;5.338;2023-04-29T06:09:52;11.30;99.90
40828;DHT22;26549;50.918;5.338;2023-04-29T06:12:18;11.20;99.90
40828;DHT22;26549;50.918;5.338;2023-04-29T06:14:46;11.40;99.90
40828;DHT22;26549;50.918;5.338;2023-04-29T06:17:12;11.30;99.90
40828;DHT22;26549;50.918;5.338;2023-04-29T06:19:37;11.40;99.90
40828;DHT22;26549;50.918;5.338;2023-04-29T06:22:03;11.40;99.90
40828;DHT22;26549;50.918;5.338;2023-04-29T06:24:29;11.50;99.90
40828;DHT22;26549;50.918;5.338;2023-04-29T06:27:00;11.30;99.90
40828;DHT22;26549;50.918;5.338;2023-04-29T06:29:28;11.10;99.90
40828;DHT22;26549;50.918;5.338;2023-04-29T06:31:55;11.20;99.90
40828;DHT22;26549;50.918;5.338;2023-04-29T06:34:22;11.20;99.90
40828;DHT22;26549;50.918;5.338;2023-04-29T06:36:48;11.20;99.90
40828;DHT22;26549;50.918;5.338;2023-04-29T06:39:14;11.40;99.90
40828;DHT22;26549;50.918;5.338;2023-04-29T06:41:40;11.40;99.90
40828;DHT22;26549;50.918;5.338;2023-04-29T06:44:06;11.50;99.90
40828;DHT22;26549;50.918;5.338;2023-04-29T06:46:32;11.70;99.90
40828;DHT22;26549;50.918;5.338;2023-04-29T06:48:58;11.50;99.90
40828;DHT22;26549;50.918;5.338;2023-04-29T06:51:25;11.50;99.90
40828;DHT22;26549;50.918;5.338;2023-04-29T06:53:54;11.40;99.90
40828;DHT22;26549;50.918;5.338;2023-04-29T06:56:22;11.50;99.90
40828;DHT22;26549;50.918;5.338;2023-04-29T06:58:48;11.60;99.90
40828;DHT22;26549;50.918;5.338;2023-04-29T07:01:16;11.80;99.90
40828;DHT22;26549;50.918;5.338;2023-04-29T07:03:42;11.90;99.90
40828;DHT22;26549;50.918;5.338;2023-04-29T07:06:09;11.70;99.90
40828;DHT22;26549;50.918;5.338;2023-04-29T07:08:34;11.80;99.90
40828;DHT22;26549;50.918;5.338;2023-04-29T07:11:00;11.80;99.90
40828;DHT22;26549;50.918;5.338;2023-04-29T07:13:26;11.90;99.90
40828;DHT22;26549;50.918;5.338;2023-04-29T07:15:52;11.90;99.90
40828;DHT22;26549;50.918;5.338;2023-04-29T07:18:18;11.90;99.90
40828;DHT22;26549;50.918;5.338;2023-04-29T07:20:43;11.90;99.90
40828;DHT22;26549;50.918;5.338;2023-04-29T07:23:10;11.80;99.90
40828;DHT22;26549;50.918;5.338;2023-04-29T07:25:38;12.00;99.90
40828;DHT22;26549;50.918;5.338;2023-04-29T07:28:04;12.10;99.90
40828;DHT22;26549;50.918;5.338;2023-04-29T07:30:32;12.00;99.90
40828;DHT22;26549;50.918;5.338;2023-04-29T07:32:59;12.20;99.90
40828;DHT22;26549;50.918;5.338;2023-04-29T07:35:25;12.10;99.90
40828;DHT22;26549;50.918;5.338;2023-04-29T07:37:51;12.20;99.90
40828;DHT22;26549;50.918;5.338;2023-04-29T07:40:17;12.30;99.90
40828;DHT22;26549;50.918;5.338;2023-04-29T07:42:43;12.30;99.90
40828;DHT22;26549;50.918;5.338;2023-04-29T07:45:09;12.20;99.90
40828;DHT22;26549;50.918;5.338;2023-04-29T07:47:35;12.10;99.90
40828;DHT22;26549;50.918;5.338;2023-04-29T07:50:01;12.30;99.90
40828;DHT22;26549;50.918;5.338;2023-04-29T07:52:28;12.50;99.90
40828;DHT22;26549;50.918;5.338;2023-04-29T07:54:54;12.50;99.90
40828;DHT22;26549;50.918;5.338;2023-04-29T07:57:22;12.50;99.90
40828;DHT22;26549;50.918;5.338;2023-04-29T07:59:52;12.50;99.90
40828;DHT22;26549;50.918;5.338;2023-04-29T08:02:18;12.50;99.90
40828;DHT22;26549;50.918;5.338;2023-04-29T08:04:45;12.40;99.90
40828;DHT22;26549;50.918;5.338;2023-04-29T08:07:11;12.40;99.90
40828;DHT22;26549;50.918;5.338;2023-04-29T08:09:37;12.40;99.90
40828;DHT22;26549;50.918;5.338;2023-04-29T08:12:03;12.40;99.90
40828;DHT22;26549;50.918;5.338;2023-04-29T08:14:29;12.10;99.90
40828;DHT22;26549;50.918;5.338;2023-04-29T08:16:56;12.10;99.90
40828;DHT22;26549;50.918;5.338;2023-04-29T08:19:22;12.30;99.90
40828;DHT22;26549;50.918;5.338;2023-04-29T08:21:48;12.20;99.90
40828;DHT22;26549;50.918;5.338;2023-04-29T08:24:13;12.10;99.90
40828;DHT22;26549;50.918;5.338;2023-04-29T08:26:40;12.10;99.90
40828;DHT22;26549;50.918;5.338;2023-04-29T08:29:07;12.00;99.90
40828;DHT22;26549;50.918;5.338;2023-04-29T08:31:32;12.00;99.90
40828;DHT22;26549;50.918;5.338;2023-04-29T08:33:59;12.30;99.90
40828;DHT22;26549;50.918;5.338;2023-04-29T08:36:25;12.40;99.90
40828;DHT22;26549;50.918;5.338;2023-04-29T08:38:53;12.60;99.90
40828;DHT22;26549;50.918;5.338;2023-04-29T08:41:19;12.80;99.90
40828;DHT22;26549;50.918;5.338;2023-04-29T08:43:45;12.50;99.90
40828;DHT22;26549;50.918;5.338;2023-04-29T08:46:11;12.40;99.90
40828;DHT22;26549;50.918;5.338;2023-04-29T08:48:39;12.60;99.90
40828;DHT22;26549;50.918;5.338;2023-04-29T08:51:06;12.70;99.90
40828;DHT22;26549;50.918;5.338;2023-04-29T08:53:32;12.80;99.90
40828;DHT22;26549;50.918;5.338;2023-04-29T08:56:08;13.00;99.90
40828;DHT22;26549;50.918;5.338;2023-04-29T08:58:35;12.90;99.90
40828;DHT22;26549;50.918;5.338;2023-04-29T09:01:07;13.00;99.90
40828;DHT22;26549;50.918;5.338;2023-04-29T09:03:43;12.90;99.90
40828;DHT22;26549;50.918;5.338;2023-04-29T09:06:11;13.00;99.90
40828;DHT22;26549;50.918;5.338;2023-04-29T09:08:38;13.10;99.90
40828;DHT22;26549;50.918;5.338;2023-04-29T09:11:06;13.00;99.90
40828;DHT22;26549;50.918;5.338;2023-04-29T09:13:34;12.90;99.90
40828;DHT22;26549;50.918;5.338;2023-04-29T09:16:01;12.40;99.90
40828;DHT22;26549;50.918;5.338;2023-04-29T09:18:46;12.40;99.90
40828;DHT22;26549;50.918;5.338;2023-04-29T09:21:19;12.20;99.90
40828;DHT22;26549;50.918;5.338;2023-04-29T09:23:47;12.40;99.90
40828;DHT22;26549;50.918;5.338;2023-04-29T09:26:14;12.40;99.90
40828;DHT22;26549;50.918;5.338;2023-04-29T09:28:41;12.40;99.90
40828;DHT22;26549;50.918;5.338;2023-04-29T09:31:10;12.60;99.90
40828;DHT22;26549;50.918;5.338;2023-04-29T09:33:53;12.50;99.90
40828;DHT22;26549;50.918;5.338;2023-04-29T09:39:12;13.00;99.90
40828;DHT22;26549;50.918;5.338;2023-04-29T09:44:26;13.60;99.90
40828;DHT22;26549;50.918;5.338;2023-04-29T09:47:08;13.40;99.90
40828;DHT22;26549;50.918;5.338;2023-04-29T09:49:39;13.60;99.90
40828;DHT22;26549;50.918;5.338;2023-04-29T09:52:14;13.80;99.90
40828;DHT22;26549;50.918;5.338;2023-04-29T09:54:47;13.90;99.90
40828;DHT22;26549;50.918;5.338;2023-04-29T09:57:12;14.00;99.90
40828;DHT22;26549;50.918;5.338;2023-04-29T09:59:41;14.10;99.90
40828;DHT22;26549;50.918;5.338;2023-04-29T10:02:19;14.10;99.90
40828;DHT22;26549;50.918;5.338;2023-04-29T10:04:55;14.10;99.90
40828;DHT22;26549;50.918;5.338;2023-04-29T10:07:22;14.20;99.90
40828;DHT22;26549;50.918;5.338;2023-04-29T10:09:50;14.00;99.90
40828;DHT22;26549;50.918;5.338;2023-04-29T10:12:18;14.00;99.90
40828;DHT22;26549;50.918;5.338;2023-04-29T10:17:45;13.90;99.90
40828;DHT22;26549;50.918;5.338;2023-04-29T10:20:21;14.00;99.90
40828;DHT22;26549;50.918;5.338;2023-04-29T10:22:49;14.20;99.90
40828;DHT22;26549;50.918;5.338;2023-04-29T10:25:20;14.40;99.90
40828;DHT22;26549;50.918;5.338;2023-04-29T10:27:48;14.60;99.90
40828;DHT22;26549;50.918;5.338;2023-04-29T10:30:17;14.50;99.90
40828;DHT22;26549;50.918;5.338;2023-04-29T10:32:47;14.50;99.90
40828;DHT22;26549;50.918;5.338;2023-04-29T10:35:15;14.10;99.90
40828;DHT22;26549;50.918;5.338;2023-04-29T10:40:58;14.30;99.90
40828;DHT22;26549;50.918;5.338;2023-04-29T10:43:29;14.30;99.90
40828;DHT22;26549;50.918;5.338;2023-04-29T10:46:28;14.50;99.90
40828;DHT22;26549;50.918;5.338;2023-04-29T10:49:01;14.50;99.90
40828;DHT22;26549;50.918;5.338;2023-04-29T10:56:35;14.50;99.90
40828;DHT22;26549;50.918;5.338;2023-04-29T10:59:03;14.60;99.90
40828;DHT22;26549;50.918;5.338;2023-04-29T11:01:49;14.50;99.90
40828;DHT22;26549;50.918;5.338;2023-04-29T11:04:20;14.60;99.90
40828;DHT22;26549;50.918;5.338;2023-04-29T11:06:56;14.50;99.90
40828;DHT22;26549;50.918;5.338;2023-04-29T11:09:26;14.80;99.90
40828;DHT22;26549;50.918;5.338;2023-04-29T11:14:28;14.90;99.90
40828;DHT22;26549;50.918;5.338;2023-04-29T11:17:00;14.80;99.90
40828;DHT22;26549;50.918;5.338;2023-04-29T11:19:47;15.00;99.90
40828;DHT22;26549;50.918;5.338;2023-04-29T11:24:57;15.20;99.90
40828;DHT22;26549;50.918;5.338;2023-04-29T11:27:30;15.20;99.90
40828;DHT22;26549;50.918;5.338;2023-04-29T11:29:58;15.20;99.90
40828;DHT22;26549;50.918;5.338;2023-04-29T11:32:26;15.30;99.90
40828;DHT22;26549;50.918;5.338;2023-04-29T11:34:52;15.50;99.90
40828;DHT22;26549;50.918;5.338;2023-04-29T11:37:22;15.50;99.90
40828;DHT22;26549;50.918;5.338;2023-04-29T11:39:48;15.70;99.90
40828;DHT22;26549;50.918;5.338;2023-04-29T11:42:19;15.30;99.90
40828;DHT22;26549;50.918;5.338;2023-04-29T11:44:45;15.40;99.90
40828;DHT22;26549;50.918;5.338;2023-04-29T11:47:10;15.70;99.90
40828;DHT22;26549;50.918;5.338;2023-04-29T11:49:37;15.80;99.90
40828;DHT22;26549;50.918;5.338;2023-04-29T11:52:03;15.70;99.90
40828;DHT22;26549;50.918;5.338;2023-04-29T11:54:29;15.80;99.90
40828;DHT22;26549;50.918;5.338;2023-04-29T11:56:57;15.70;99.90
40828;DHT22;26549;50.918;5.338;2023-04-29T11:59:23;15.80;99.90
40828;DHT22;26549;50.918;5.338;2023-04-29T12:01:49;15.70;99.90
40828;DHT22;26549;50.918;5.338;2023-04-29T12:04:17;15.60;99.90
40828;DHT22;26549;50.918;5.338;2023-04-29T12:06:44;15.70;99.90
40828;DHT22;26549;50.918;5.338;2023-04-29T12:09:11;15.50;99.90
40828;DHT22;26549;50.918;5.338;2023-04-29T12:11:38;15.90;99.90
40828;DHT22;26549;50.918;5.338;2023-04-29T12:14:04;15.80;99.90
40828;DHT22;26549;50.918;5.338;2023-04-29T12:16:33;16.00;99.90
40828;DHT22;26549;50.918;5.338;2023-04-29T12:19:00;15.90;99.90
40828;DHT22;26549;50.918;5.338;2023-04-29T12:21:26;15.80;99.90
40828;DHT22;26549;50.918;5.338;2023-04-29T12:23:53;15.80;99.90
40828;DHT22;26549;50.918;5.338;2023-04-29T12:26:20;15.60;99.90
40828;DHT22;26549;50.918;5.338;2023-04-29T12:28:48;15.40;99.90
40828;DHT22;26549;50.918;5.338;2023-04-29T12:31:20;15.40;99.90
40828;DHT22;26549;50.918;5.338;2023-04-29T12:33:48;15.40;99.90
40828;DHT22;26549;50.918;5.338;2023-04-29T12:36:17;15.40;99.90
40828;DHT22;26549;50.918;5.338;2023-04-29T12:38:46;15.50;99.90
40828;DHT22;26549;50.918;5.338;2023-04-29T12:41:14;15.40;99.90
40828;DHT22;26549;50.918;5.338;2023-04-29T12:43:41;15.40;99.90
40828;DHT22;26549;50.918;5.338;2023-04-29T12:46:09;15.40;99.90
40828;DHT22;26549;50.918;5.338;2023-04-29T12:48:39;15.50;99.90
40828;DHT22;26549;50.918;5.338;2023-04-29T12:51:10;15.60;99.90
40828;DHT22;26549;50.918;5.338;2023-04-29T12:53:36;15.60;99.90
40828;DHT22;26549;50.918;5.338;2023-04-29T12:56:03;15.60;99.90
40828;DHT22;26549;50.918;5.338;2023-04-29T12:58:30;15.60;99.90
40828;DHT22;26549;50.918;5.338;2023-04-29T13:00:58;15.60;99.90
40828;DHT22;26549;50.918;5.338;2023-04-29T13:03:26;15.60;99.90
40828;DHT22;26549;50.918;5.338;2023-04-29T13:05:52;15.40;99.90
40828;DHT22;26549;50.918;5.338;2023-04-29T13:08:19;15.30;99.90
40828;DHT22;26549;50.918;5.338;2023-04-29T13:10:47;15.50;99.90
40828;DHT22;26549;50.918;5.338;2023-04-29T13:13:14;15.90;99.90
40828;DHT22;26549;50.918;5.338;2023-04-29T13:15:40;16.00;99.90
40828;DHT22;26549;50.918;5.338;2023-04-29T13:18:07;16.10;99.90
40828;DHT22;26549;50.918;5.338;2023-04-29T13:20:33;15.90;99.90
40828;DHT22;26549;50.918;5.338;2023-04-29T13:23:02;16.10;99.90
40828;DHT22;26549;50.918;5.338;2023-04-29T13:25:31;16.00;99.90
40828;DHT22;26549;50.918;5.338;2023-04-29T13:27:58;16.10;99.90
40828;DHT22;26549;50.918;5.338;2023-04-29T13:30:25;16.10;99.90
40828;DHT22;26549;50.918;5.338;2023-04-29T13:32:50;16.20;99.90
40828;DHT22;26549;50.918;5.338;2023-04-29T13:35:16;16.30;99.90
40828;DHT22;26549;50.918;5.338;2023-04-29T13:37:42;16.50;99.90
40828;DHT22;26549;50.918;5.338;2023-04-29T13:40:09;16.40;99.90
40828;DHT22;26549;50.918;5.338;2023-04-29T13:42:35;16.70;99.90
40828;DHT22;26549;50.918;5.338;2023-04-29T13:45:01;16.70;99.90
40828;DHT22;26549;50.918;5.338;2023-04-29T13:47:28;16.60;99.90
40828;DHT22;26549;50.918;5.338;2023-04-29T13:49:54;16.50;99.90
40828;DHT22;26549;50.918;5.338;2023-04-29T13:52:20;16.40;99.90
40828;DHT22;26549;50.918;5.338;2023-04-29T13:54:46;16.40;99.90
40828;DHT22;26549;50.918;5.338;2023-04-29T13:57:12;16.30;99.90
40828;DHT22;26549;50.918;5.338;2023-04-29T13:59:39;16.50;99.90
40828;DHT22;26549;50.918;5.338;2023-04-29T14:02:05;16.40;99.90
40828;DHT22;26549;50.918;5.338;2023-04-29T14:04:32;16.10;99.90
40828;DHT22;26549;50.918;5.338;2023-04-29T14:06:58;16.40;99.90
40828;DHT22;26549;50.918;5.338;2023-04-29T14:09:24;16.50;99.90
40828;DHT22;26549;50.918;5.338;2023-04-29T14:11:50;16.60;99.90
40828;DHT22;26549;50.918;5.338;2023-04-29T14:14:17;16.50;99.90
40828;DHT22;26549;50.918;5.338;2023-04-29T14:16:43;16.50;99.90
40828;DHT22;26549;50.918;5.338;2023-04-29T14:19:10;16.50;99.90
40828;DHT22;26549;50.918;5.338;2023-04-29T14:21:37;16.50;99.90
40828;DHT22;26549;50.918;5.338;2023-04-29T14:24:03;16.50;99.90
40828;DHT22;26549;50.918;5.338;2023-04-29T14:26:30;16.40;99.90
40828;DHT22;26549;50.918;5.338;2023-04-29T14:28:57;16.40;99.90
40828;DHT22;26549;50.918;5.338;2023-04-29T14:31:28;16.20;99.90
40828;DHT22;26549;50.918;5.338;2023-04-29T14:33:54;16.20;99.90
40828;DHT22;26549;50.918;5.338;2023-04-29T14:36:22;16.00;99.90
40828;DHT22;26549;50.918;5.338;2023-04-29T14:38:48;15.80;99.90
40828;DHT22;26549;50.918;5.338;2023-04-29T14:41:14;15.70;99.90
40828;DHT22;26549;50.918;5.338;2023-04-29T14:43:40;15.80;99.90
40828;DHT22;26549;50.918;5.338;2023-04-29T14:46:07;15.90;99.90
40828;DHT22;26549;50.918;5.338;2023-04-29T14:48:34;16.00;99.90
40828;DHT22;26549;50.918;5.338;2023-04-29T14:51:00;16.20;99.90
40828;DHT22;26549;50.918;5.338;2023-04-29T14:53:29;16.20;99.90
40828;DHT22;26549;50.918;5.338;2023-04-29T14:55:56;16.40;99.90
40828;DHT22;26549;50.918;5.338;2023-04-29T14:58:23;16.40;99.90
40828;DHT22;26549;50.918;5.338;2023-04-29T15:00:50;16.40;99.90
40828;DHT22;26549;50.918;5.338;2023-04-29T15:03:16;16.40;99.90
40828;DHT22;26549;50.918;5.338;2023-04-29T15:05:43;16.40;99.90
40828;DHT22;26549;50.918;5.338;2023-04-29T15:08:11;16.50;99.90
40828;DHT22;26549;50.918;5.338;2023-04-29T15:10:37;16.10;99.90
40828;DHT22;26549;50.918;5.338;2023-04-29T15:13:03;16.20;99.90
40828;DHT22;26549;50.918;5.338;2023-04-29T15:15:29;16.10;99.90
40828;DHT22;26549;50.918;5.338;2023-04-29T15:17:55;16.30;99.90
40828;DHT22;26549;50.918;5.338;2023-04-29T15:20:21;16.30;99.90
40828;DHT22;26549;50.918;5.338;2023-04-29T15:22:47;16.10;99.90
40828;DHT22;26549;50.918;5.338;2023-04-29T15:25:13;16.10;99.90
40828;DHT22;26549;50.918;5.338;2023-04-29T15:27:39;16.20;99.90
40828;DHT22;26549;50.918;5.338;2023-04-29T15:30:05;16.40;99.90
40828;DHT22;26549;50.918;5.338;2023-04-29T15:32:31;16.50;99.90
40828;DHT22;26549;50.918;5.338;2023-04-29T15:35:00;16.50;99.90
40828;DHT22;26549;50.918;5.338;2023-04-29T15:37:26;16.50;99.90
40828;DHT22;26549;50.918;5.338;2023-04-29T15:39:53;16.20;99.90
40828;DHT22;26549;50.918;5.338;2023-04-29T15:42:19;16.10;99.90
40828;DHT22;26549;50.918;5.338;2023-04-29T15:44:45;16.00;99.90
40828;DHT22;26549;50.918;5.338;2023-04-29T15:47:10;16.00;99.90
40828;DHT22;26549;50.918;5.338;2023-04-29T15:49:36;16.00;99.90
40828;DHT22;26549;50.918;5.338;2023-04-29T15:52:04;16.00;99.90
40828;DHT22;26549;50.918;5.338;2023-04-29T15:54:30;16.00;99.90
40828;DHT22;26549;50.918;5.338;2023-04-29T15:56:56;16.10;99.90
40828;DHT22;26549;50.918;5.338;2023-04-29T15:59:22;16.10;99.90
40828;DHT22;26549;50.918;5.338;2023-04-29T16:01:48;16.10;99.90
40828;DHT22;26549;50.918;5.338;2023-04-29T16:04:14;16.10;99.90
40828;DHT22;26549;50.918;5.338;2023-04-29T16:06:41;16.20;99.90